sensor_id;sensor_type;location;lat;lon;timestamp;temperature;humidity
7028;DHT22;3555;53.248;10.336;2023-06-22T00:00:53;20.70;1.00
7028;DHT22;3555;53.248;10.336;2023-06-22T00:03:22;20.70;1.00
7028;DHT22;3555;53.248;10.336;2023-06-22T00:05:51;20.60;1.00
7028;DHT22;3555;53.248;10.336;2023-06-22T00:08:19;20.50;1.00
7028;DHT22;3555;53.248;10.336;2023-06-22T00:10:46;20.40;6.90
7028;DHT22;3555;53.248;10.336;2023-06-22T00:13:13;20.30;99.90
7028;DHT22;3555;53.248;10.336;2023-06-22T00:15:42;20.20;1.00
7028;DHT22;3555;53.248;10.336;2023-06-22T00:18:10;20.30;1.00
7028;DHT22;3555;53.248;10.336;2023-06-22T00:20:38;20.30;1.00
7028;DHT22;3555;53.248;10.336;2023-06-22T00:23:06;20.30;1.00
7028;DHT22;3555;53.248;10.336;2023-06-22T00:25:34;20.30;99.90
7028;DHT22;3555;53.248;10.336;2023-06-22T00:28:02;20.20;99.90
7028;DHT22;3555;53.248;10.336;2023-06-22T00:30:30;20.10;1.00
7028;DHT22;3555;53.248;10.336;2023-06-22T00:32:59;20.00;1.00
7028;DHT22;3555;53.248;10.336;2023-06-22T00:35:26;20.00;1.00
7028;DHT22;3555;53.248;10.336;2023-06-22T00:37:54;20.00;1.00
7028;DHT22;3555;53.248;10.336;2023-06-22T00:40:26;20.10;99.90
7028;DHT22;3555;53.248;10.336;2023-06-22T00:42:53;20.10;99.90
7028;DHT22;3555;53.248;10.336;2023-06-22T00:45:21;20.20;20.30
7028;DHT22;3555;53.248;10.336;2023-06-22T00:47:48;20.10;99.90
7028;DHT22;3555;53.248;10.336;2023-06-22T00:50:20;20.20;1.00
7028;DHT22;3555;53.248;10.336;2023-06-22T00:52:51;20.20;1.00
7028;DHT22;3555;53.248;10.336;2023-06-22T00:55:18;20.20;40.10
7028;DHT22;3555;53.248;10.336;2023-06-22T00:57:46;20.20;1.00
7028;DHT22;3555;53.248;10.336;2023-06-22T01:00:14;20.30;1.00
7028;DHT22;3555;53.248;10.336;2023-06-22T01:02:42;20.30;1.00
7028;DHT22;3555;53.248;10.336;2023-06-22T01:05:11;20.30;1.00
7028;DHT22;3555;53.248;10.336;2023-06-22T01:07:44;20.30;1.00
7028;DHT22;3555;53.248;10.336;2023-06-22T01:10:18;20.20;99.90
7028;DHT22;3555;53.248;10.336;2023-06-22T01:12:52;20.10;50.10
7028;DHT22;3555;53.248;10.336;2023-06-22T01:15:25;20.10;99.90
7028;DHT22;3555;53.248;10.336;2023-06-22T01:17:56;20.00;99.90
7028;DHT22;3555;53.248;10.336;2023-06-22T01:20:23;19.90;1.00
7028;DHT22;3555;53.248;10.336;2023-06-22T01:23:05;19.90;1.00
7028;DHT22;3555;53.248;10.336;2023-06-22T01:25:38;19.90;1.00
7028;DHT22;3555;53.248;10.336;2023-06-22T01:28:19;19.90;1.00
7028;DHT22;3555;53.248;10.336;2023-06-22T01:30:51;19.80;1.00
7028;DHT22;3555;53.248;10.336;2023-06-22T01:33:29;19.80;1.00
7028;DHT22;3555;53.248;10.336;2023-06-22T01:35:57;19.80;1.00
7028;DHT22;3555;53.248;10.336;2023-06-22T01:38:25;19.80;1.00
7028;DHT22;3555;53.248;10.336;2023-06-22T01:40:52;19.80;1.00
7028;DHT22;3555;53.248;10.336;2023-06-22T01:43:21;19.80;99.90
7028;DHT22;3555;53.248;10.336;2023-06-22T01:45:50;19.80;1.00
7028;DHT22;3555;53.248;10.336;2023-06-22T01:48:17;19.70;1.00
7028;DHT22;3555;53.248;10.336;2023-06-22T01:50:45;19.60;1.00
7028;DHT22;3555;53.248;10.336;2023-06-22T01:53:11;19.50;65.60
7028;DHT22;3555;53.248;10.336;2023-06-22T01:55:38;19.50;99.90
7028;DHT22;3555;53.248;10.336;2023-06-22T01:58:05;19.50;99.90
7028;DHT22;3555;53.248;10.336;2023-06-22T02:00:35;19.50;1.00
7028;DHT22;3555;53.248;10.336;2023-06-22T02:03:10;19.50;1.00
7028;DHT22;3555;53.248;10.336;2023-06-22T02:05:42;19.50;1.00
7028;DHT22;3555;53.248;10.336;2023-06-22T02:08:13;19.50;1.00
7028;DHT22;3555;53.248;10.336;2023-06-22T02:10:44;19.50;99.90
7028;DHT22;3555;53.248;10.336;2023-06-22T02:13:12;19.50;1.00
7028;DHT22;3555;53.248;10.336;2023-06-22T02:15:39;19.50;1.00
7028;DHT22;3555;53.248;10.336;2023-06-22T02:18:08;19.40;1.00
7028;DHT22;3555;53.248;10.336;2023-06-22T02:20:36;19.40;1.00
7028;DHT22;3555;53.248;10.336;2023-06-22T02:23:03;19.40;99.90
7028;DHT22;3555;53.248;10.336;2023-06-22T02:25:31;19.40;1.00
7028;DHT22;3555;53.248;10.336;2023-06-22T02:27:58;19.30;1.00
7028;DHT22;3555;53.248;10.336;2023-06-22T02:30:25;19.30;1.00
7028;DHT22;3555;53.248;10.336;2023-06-22T02:32:52;19.10;1.00
7028;DHT22;3555;53.248;10.336;2023-06-22T02:35:25;19.00;99.90
7028;DHT22;3555;53.248;10.336;2023-06-22T02:37:52;18.90;1.00
7028;DHT22;3555;53.248;10.336;2023-06-22T02:40:19;19.00;99.90
7028;DHT22;3555;53.248;10.336;2023-06-22T02:42:46;18.90;99.90
7028;DHT22;3555;53.248;10.336;2023-06-22T02:45:13;18.90;1.00
7028;DHT22;3555;53.248;10.336;2023-06-22T02:47:40;18.90;99.90
7028;DHT22;3555;53.248;10.336;2023-06-22T02:50:08;19.00;99.90
7028;DHT22;3555;53.248;10.336;2023-06-22T02:52:36;19.10;1.00
7028;DHT22;3555;53.248;10.336;2023-06-22T02:55:04;19.20;99.90
7028;DHT22;3555;53.248;10.336;2023-06-22T02:57:32;19.30;1.00
7028;DHT22;3555;53.248;10.336;2023-06-22T02:59:59;19.20;1.00
7028;DHT22;3555;53.248;10.336;2023-06-22T03:02:26;19.10;1.00
7028;DHT22;3555;53.248;10.336;2023-06-22T03:04:53;19.10;1.00
7028;DHT22;3555;53.248;10.336;2023-06-22T03:07:20;19.10;99.90
7028;DHT22;3555;53.248;10.336;2023-06-22T03:09:48;19.10;71.00
7028;DHT22;3555;53.248;10.336;2023-06-22T03:12:15;19.10;99.90
7028;DHT22;3555;53.248;10.336;2023-06-22T03:14:42;19.10;99.90
7028;DHT22;3555;53.248;10.336;2023-06-22T03:17:10;19.00;1.00
7028;DHT22;3555;53.248;10.336;2023-06-22T03:19:37;18.90;1.00
7028;DHT22;3555;53.248;10.336;2023-06-22T03:22:04;18.70;99.90
7028;DHT22;3555;53.248;10.336;2023-06-22T03:24:32;18.40;1.00
7028;DHT22;3555;53.248;10.336;2023-06-22T03:27:01;18.30;1.00
7028;DHT22;3555;53.248;10.336;2023-06-22T03:29:30;18.40;99.90
7028;DHT22;3555;53.248;10.336;2023-06-22T03:31:57;18.40;66.00
7028;DHT22;3555;53.248;10.336;2023-06-22T03:34:24;18.40;1.00
7028;DHT22;3555;53.248;10.336;2023-06-22T03:36:50;18.40;1.00
7028;DHT22;3555;53.248;10.336;2023-06-22T03:39:17;18.50;1.00
7028;DHT22;3555;53.248;10.336;2023-06-22T03:41:45;18.60;1.00
7028;DHT22;3555;53.248;10.336;2023-06-22T03:44:14;18.70;99.90
7028;DHT22;3555;53.248;10.336;2023-06-22T03:46:40;18.10;99.90
7028;DHT22;3555;53.248;10.336;2023-06-22T03:49:07;18.20;1.00
7028;DHT22;3555;53.248;10.336;2023-06-22T03:51:34;18.30;1.00
7028;DHT22;3555;53.248;10.336;2023-06-22T03:54:01;18.40;1.00
7028;DHT22;3555;53.248;10.336;2023-06-22T03:56:28;18.50;1.00
7028;DHT22;3555;53.248;10.336;2023-06-22T03:58:55;18.50;1.00
7028;DHT22;3555;53.248;10.336;2023-06-22T04:01:23;18.50;99.90
7028;DHT22;3555;53.248;10.336;2023-06-22T04:03:50;18.60;1.00
7028;DHT22;3555;53.248;10.336;2023-06-22T04:06:17;18.60;41.30
7028;DHT22;3555;53.248;10.336;2023-06-22T04:08:45;18.70;1.00
7028;DHT22;3555;53.248;10.336;2023-06-22T04:11:13;18.80;99.90
7028;DHT22;3555;53.248;10.336;2023-06-22T04:13:40;18.80;1.00
7028;DHT22;3555;53.248;10.336;2023-06-22T04:16:07;18.80;1.00
7028;DHT22;3555;53.248;10.336;2023-06-22T04:18:35;18.80;1.00
7028;DHT22;3555;53.248;10.336;2023-06-22T04:21:02;18.80;1.00
7028;DHT22;3555;53.248;10.336;2023-06-22T04:23:29;18.80;1.00
7028;DHT22;3555;53.248;10.336;2023-06-22T04:25:56;18.80;1.00
7028;DHT22;3555;53.248;10.336;2023-06-22T04:28:23;18.80;1.00
7028;DHT22;3555;53.248;10.336;2023-06-22T04:30:50;18.90;1.00
7028;DHT22;3555;53.248;10.336;2023-06-22T04:33:17;19.00;1.00
7028;DHT22;3555;53.248;10.336;2023-06-22T04:35:46;18.60;1.00
7028;DHT22;3555;53.248;10.336;2023-06-22T04:38:13;18.60;99.90
7028;DHT22;3555;53.248;10.336;2023-06-22T04:40:40;18.80;99.10
7028;DHT22;3555;53.248;10.336;2023-06-22T04:43:07;18.90;1.00
7028;DHT22;3555;53.248;10.336;2023-06-22T04:45:35;19.10;99.90
7028;DHT22;3555;53.248;10.336;2023-06-22T04:48:04;19.20;99.90
7028;DHT22;3555;53.248;10.336;2023-06-22T04:50:31;19.20;1.00
7028;DHT22;3555;53.248;10.336;2023-06-22T04:52:59;19.30;1.00
7028;DHT22;3555;53.248;10.336;2023-06-22T04:55:26;19.50;99.90
7028;DHT22;3555;53.248;10.336;2023-06-22T04:57:53;19.60;1.00
7028;DHT22;3555;53.248;10.336;2023-06-22T05:00:20;19.70;1.00
7028;DHT22;3555;53.248;10.336;2023-06-22T05:02:49;19.80;99.90
7028;DHT22;3555;53.248;10.336;2023-06-22T05:05:16;20.00;1.00
7028;DHT22;3555;53.248;10.336;2023-06-22T05:07:44;20.10;1.00
7028;DHT22;3555;53.248;10.336;2023-06-22T05:10:14;20.20;1.00
7028;DHT22;3555;53.248;10.336;2023-06-22T05:12:41;20.30;99.90
7028;DHT22;3555;53.248;10.336;2023-06-22T05:15:09;20.30;99.90
7028;DHT22;3555;53.248;10.336;2023-06-22T05:17:36;20.40;17.00
7028;DHT22;3555;53.248;10.336;2023-06-22T05:20:09;20.60;1.00
7028;DHT22;3555;53.248;10.336;2023-06-22T05:22:36;20.70;1.00
7028;DHT22;3555;53.248;10.336;2023-06-22T05:25:05;20.80;1.00
7028;DHT22;3555;53.248;10.336;2023-06-22T05:27:33;21.00;1.00
7028;DHT22;3555;53.248;10.336;2023-06-22T05:30:06;21.10;99.90
7028;DHT22;3555;53.248;10.336;2023-06-22T05:32:33;21.30;99.90
7028;DHT22;3555;53.248;10.336;2023-06-22T05:35:00;21.50;1.00
7028;DHT22;3555;53.248;10.336;2023-06-22T05:37:27;21.60;1.00
7028;DHT22;3555;53.248;10.336;2023-06-22T05:39:54;21.70;1.00
7028;DHT22;3555;53.248;10.336;2023-06-22T05:42:22;21.90;1.00
7028;DHT22;3555;53.248;10.336;2023-06-22T05:44:52;22.00;1.00
7028;DHT22;3555;53.248;10.336;2023-06-22T05:47:19;22.20;99.90
7028;DHT22;3555;53.248;10.336;2023-06-22T05:49:46;22.50;99.90
7028;DHT22;3555;53.248;10.336;2023-06-22T05:52:13;22.70;22.50
7028;DHT22;3555;53.248;10.336;2023-06-22T05:54:40;22.80;1.00
7028;DHT22;3555;53.248;10.336;2023-06-22T05:57:08;23.00;1.00
7028;DHT22;3555;53.248;10.336;2023-06-22T05:59:35;23.30;1.00
7028;DHT22;3555;53.248;10.336;2023-06-22T06:02:04;23.50;1.00
7028;DHT22;3555;53.248;10.336;2023-06-22T06:04:31;23.70;1.00
7028;DHT22;3555;53.248;10.336;2023-06-22T06:06:57;24.00;1.00
7028;DHT22;3555;53.248;10.336;2023-06-22T06:09:24;24.10;1.00
7028;DHT22;3555;53.248;10.336;2023-06-22T06:11:51;24.20;1.00
7028;DHT22;3555;53.248;10.336;2023-06-22T06:14:18;24.30;1.00
7028;DHT22;3555;53.248;10.336;2023-06-22T06:16:45;24.30;99.90
7028;DHT22;3555;53.248;10.336;2023-06-22T06:19:14;24.40;99.90
7028;DHT22;3555;53.248;10.336;2023-06-22T06:21:40;24.60;99.90
7028;DHT22;3555;53.248;10.336;2023-06-22T06:24:07;24.60;99.90
7028;DHT22;3555;53.248;10.336;2023-06-22T06:26:34;24.60;99.90
7028;DHT22;3555;53.248;10.336;2023-06-22T06:29:01;24.70;99.90
7028;DHT22;3555;53.248;10.336;2023-06-22T06:31:28;24.80;99.90
7028;DHT22;3555;53.248;10.336;2023-06-22T06:33:56;25.00;99.90
7028;DHT22;3555;53.248;10.336;2023-06-22T06:36:24;25.30;99.90
7028;DHT22;3555;53.248;10.336;2023-06-22T06:38:51;25.50;99.90
7028;DHT22;3555;53.248;10.336;2023-06-22T06:41:18;25.70;99.90
7028;DHT22;3555;53.248;10.336;2023-06-22T06:43:45;25.90;99.90
7028;DHT22;3555;53.248;10.336;2023-06-22T06:46:12;26.00;99.90
7028;DHT22;3555;53.248;10.336;2023-06-22T06:48:39;26.20;99.90
7028;DHT22;3555;53.248;10.336;2023-06-22T06:51:06;26.30;75.70
7028;DHT22;3555;53.248;10.336;2023-06-22T06:53:36;26.40;54.60
7028;DHT22;3555;53.248;10.336;2023-06-22T06:56:03;26.70;35.10
7028;DHT22;3555;53.248;10.336;2023-06-22T06:58:30;26.90;92.80
7028;DHT22;3555;53.248;10.336;2023-06-22T07:00:58;27.10;1.00
7028;DHT22;3555;53.248;10.336;2023-06-22T07:03:24;27.10;1.00
7028;DHT22;3555;53.248;10.336;2023-06-22T07:05:51;27.10;1.00
7028;DHT22;3555;53.248;10.336;2023-06-22T07:08:18;27.00;1.00
7028;DHT22;3555;53.248;10.336;2023-06-22T07:10:46;27.20;1.00
7028;DHT22;3555;53.248;10.336;2023-06-22T07:13:13;27.40;1.00
7028;DHT22;3555;53.248;10.336;2023-06-22T07:15:40;27.50;1.00
7028;DHT22;3555;53.248;10.336;2023-06-22T07:18:07;27.70;1.00
7028;DHT22;3555;53.248;10.336;2023-06-22T07:20:34;27.90;1.00
7028;DHT22;3555;53.248;10.336;2023-06-22T07:23:01;28.10;1.00
7028;DHT22;3555;53.248;10.336;2023-06-22T07:25:28;28.40;1.00
7028;DHT22;3555;53.248;10.336;2023-06-22T07:28:00;28.40;1.00
7028;DHT22;3555;53.248;10.336;2023-06-22T07:30:28;28.60;1.00
7028;DHT22;3555;53.248;10.336;2023-06-22T07:32:56;28.80;1.00
7028;DHT22;3555;53.248;10.336;2023-06-22T07:35:23;28.80;1.00
7028;DHT22;3555;53.248;10.336;2023-06-22T07:37:50;28.90;1.00
7028;DHT22;3555;53.248;10.336;2023-06-22T07:40:17;29.00;1.00
7028;DHT22;3555;53.248;10.336;2023-06-22T07:42:44;29.00;1.00
7028;DHT22;3555;53.248;10.336;2023-06-22T07:45:15;29.00;1.00
7028;DHT22;3555;53.248;10.336;2023-06-22T07:47:41;28.70;1.00
7028;DHT22;3555;53.248;10.336;2023-06-22T07:50:09;28.50;1.00
7028;DHT22;3555;53.248;10.336;2023-06-22T07:52:36;28.70;1.00
7028;DHT22;3555;53.248;10.336;2023-06-22T07:55:04;28.80;1.00
7028;DHT22;3555;53.248;10.336;2023-06-22T07:57:30;28.60;1.00
7028;DHT22;3555;53.248;10.336;2023-06-22T07:59:59;28.70;1.00
7028;DHT22;3555;53.248;10.336;2023-06-22T08:02:27;28.90;1.00
7028;DHT22;3555;53.248;10.336;2023-06-22T08:04:54;29.00;1.00
7028;DHT22;3555;53.248;10.336;2023-06-22T08:07:21;29.10;1.00
7028;DHT22;3555;53.248;10.336;2023-06-22T08:09:48;29.10;1.00
7028;DHT22;3555;53.248;10.336;2023-06-22T08:12:15;29.10;1.00
7028;DHT22;3555;53.248;10.336;2023-06-22T08:14:43;29.30;1.00
7028;DHT22;3555;53.248;10.336;2023-06-22T08:17:11;29.30;1.00
7028;DHT22;3555;53.248;10.336;2023-06-22T08:19:40;29.20;1.00
7028;DHT22;3555;53.248;10.336;2023-06-22T08:22:07;29.00;1.00
7028;DHT22;3555;53.248;10.336;2023-06-22T08:24:34;29.00;1.00
7028;DHT22;3555;53.248;10.336;2023-06-22T08:27:01;29.20;1.00
7028;DHT22;3555;53.248;10.336;2023-06-22T08:29:27;29.30;1.00
7028;DHT22;3555;53.248;10.336;2023-06-22T08:31:54;29.30;1.00
7028;DHT22;3555;53.248;10.336;2023-06-22T08:34:21;29.00;1.00
7028;DHT22;3555;53.248;10.336;2023-06-22T08:36:51;29.00;1.00
7028;DHT22;3555;53.248;10.336;2023-06-22T08:39:19;29.30;1.00
7028;DHT22;3555;53.248;10.336;2023-06-22T08:41:46;29.10;1.00
7028;DHT22;3555;53.248;10.336;2023-06-22T08:44:13;29.00;1.00
7028;DHT22;3555;53.248;10.336;2023-06-22T08:46:40;28.40;1.00
7028;DHT22;3555;53.248;10.336;2023-06-22T08:49:07;28.50;1.00
7028;DHT22;3555;53.248;10.336;2023-06-22T08:51:35;28.70;1.00
7028;DHT22;3555;53.248;10.336;2023-06-22T08:54:03;28.90;1.00
7028;DHT22;3555;53.248;10.336;2023-06-22T08:56:30;29.10;1.00
7028;DHT22;3555;53.248;10.336;2023-06-22T08:58:57;29.10;1.00
7028;DHT22;3555;53.248;10.336;2023-06-22T09:01:24;28.90;1.00
7028;DHT22;3555;53.248;10.336;2023-06-22T09:03:51;29.10;1.00
7028;DHT22;3555;53.248;10.336;2023-06-22T09:06:23;29.30;1.00
7028;DHT22;3555;53.248;10.336;2023-06-22T09:08:49;29.60;1.00
7028;DHT22;3555;53.248;10.336;2023-06-22T09:11:18;29.80;1.00
7028;DHT22;3555;53.248;10.336;2023-06-22T09:13:45;29.70;1.00
7028;DHT22;3555;53.248;10.336;2023-06-22T09:16:12;29.80;1.00
7028;DHT22;3555;53.248;10.336;2023-06-22T09:18:39;29.60;1.00
7028;DHT22;3555;53.248;10.336;2023-06-22T09:21:06;29.40;1.00
7028;DHT22;3555;53.248;10.336;2023-06-22T09:23:33;29.60;1.00
7028;DHT22;3555;53.248;10.336;2023-06-22T09:26:00;29.90;1.00
7028;DHT22;3555;53.248;10.336;2023-06-22T09:28:30;30.10;1.00
7028;DHT22;3555;53.248;10.336;2023-06-22T09:30:59;30.30;1.00
7028;DHT22;3555;53.248;10.336;2023-06-22T09:33:26;30.00;1.00
7028;DHT22;3555;53.248;10.336;2023-06-22T09:35:53;29.80;1.00
7028;DHT22;3555;53.248;10.336;2023-06-22T09:38:20;29.80;1.00
7028;DHT22;3555;53.248;10.336;2023-06-22T09:40:46;30.10;1.00
7028;DHT22;3555;53.248;10.336;2023-06-22T09:43:13;30.30;1.00
7028;DHT22;3555;53.248;10.336;2023-06-22T09:45:42;30.30;1.00
7028;DHT22;3555;53.248;10.336;2023-06-22T09:48:09;30.00;1.00
7028;DHT22;3555;53.248;10.336;2023-06-22T09:50:36;29.90;1.00
7028;DHT22;3555;53.248;10.336;2023-06-22T09:53:03;29.70;1.00
7028;DHT22;3555;53.248;10.336;2023-06-22T09:55:30;29.70;1.00
7028;DHT22;3555;53.248;10.336;2023-06-22T09:57:56;30.00;1.00
7028;DHT22;3555;53.248;10.336;2023-06-22T10:00:23;30.30;1.00
7028;DHT22;3555;53.248;10.336;2023-06-22T10:02:53;30.50;1.00
7028;DHT22;3555;53.248;10.336;2023-06-22T10:05:21;30.70;1.00
7028;DHT22;3555;53.248;10.336;2023-06-22T10:07:48;31.20;1.00
7028;DHT22;3555;53.248;10.336;2023-06-22T10:10:15;31.20;1.00
7028;DHT22;3555;53.248;10.336;2023-06-22T10:12:45;30.60;1.00
7028;DHT22;3555;53.248;10.336;2023-06-22T10:15:12;30.20;1.00
7028;DHT22;3555;53.248;10.336;2023-06-22T10:17:39;30.20;1.00
7028;DHT22;3555;53.248;10.336;2023-06-22T10:20:08;30.70;1.00
7028;DHT22;3555;53.248;10.336;2023-06-22T10:22:38;30.50;1.00
7028;DHT22;3555;53.248;10.336;2023-06-22T10:25:06;30.70;1.00
7028;DHT22;3555;53.248;10.336;2023-06-22T10:27:33;30.90;1.00
7028;DHT22;3555;53.248;10.336;2023-06-22T10:30:00;30.40;1.00
7028;DHT22;3555;53.248;10.336;2023-06-22T10:32:27;30.30;1.00
7028;DHT22;3555;53.248;10.336;2023-06-22T10:34:54;30.50;1.00
7028;DHT22;3555;53.248;10.336;2023-06-22T10:37:23;30.50;1.00
7028;DHT22;3555;53.248;10.336;2023-06-22T10:39:49;30.60;1.00
7028;DHT22;3555;53.248;10.336;2023-06-22T10:42:17;30.50;1.00
7028;DHT22;3555;53.248;10.336;2023-06-22T10:44:43;30.60;1.00
7028;DHT22;3555;53.248;10.336;2023-06-22T10:47:11;30.10;1.00
7028;DHT22;3555;53.248;10.336;2023-06-22T10:49:38;30.00;1.00
7028;DHT22;3555;53.248;10.336;2023-06-22T10:52:06;29.80;1.00
7028;DHT22;3555;53.248;10.336;2023-06-22T10:54:35;30.00;1.00
7028;DHT22;3555;53.248;10.336;2023-06-22T10:57:02;29.60;1.00
7028;DHT22;3555;53.248;10.336;2023-06-22T10:59:29;29.50;1.00
7028;DHT22;3555;53.248;10.336;2023-06-22T11:01:56;29.60;1.00
7028;DHT22;3555;53.248;10.336;2023-06-22T11:04:24;29.70;1.00
7028;DHT22;3555;53.248;10.336;2023-06-22T11:06:51;29.70;1.00
7028;DHT22;3555;53.248;10.336;2023-06-22T11:09:18;30.00;1.00
7028;DHT22;3555;53.248;10.336;2023-06-22T11:11:48;30.20;1.00
7028;DHT22;3555;53.248;10.336;2023-06-22T11:14:16;30.10;1.00
7028;DHT22;3555;53.248;10.336;2023-06-22T11:16:42;30.10;1.00
7028;DHT22;3555;53.248;10.336;2023-06-22T11:19:09;30.20;1.00
7028;DHT22;3555;53.248;10.336;2023-06-22T11:21:36;30.00;1.00
7028;DHT22;3555;53.248;10.336;2023-06-22T11:24:03;29.80;1.00
7028;DHT22;3555;53.248;10.336;2023-06-22T11:26:30;29.90;1.00
7028;DHT22;3555;53.248;10.336;2023-06-22T11:29:00;29.80;1.00
7028;DHT22;3555;53.248;10.336;2023-06-22T11:31:26;29.80;1.00
7028;DHT22;3555;53.248;10.336;2023-06-22T11:33:53;30.10;1.00
7028;DHT22;3555;53.248;10.336;2023-06-22T11:36:20;30.30;1.00
7028;DHT22;3555;53.248;10.336;2023-06-22T11:38:47;30.50;1.00
7028;DHT22;3555;53.248;10.336;2023-06-22T11:41:14;30.50;1.00
7028;DHT22;3555;53.248;10.336;2023-06-22T11:43:41;30.20;1.00
7028;DHT22;3555;53.248;10.336;2023-06-22T11:46:09;30.20;1.00
7028;DHT22;3555;53.248;10.336;2023-06-22T11:48:36;30.50;1.00
7028;DHT22;3555;53.248;10.336;2023-06-22T11:51:04;30.50;1.00
7028;DHT22;3555;53.248;10.336;2023-06-22T11:53:32;30.80;1.00
7028;DHT22;3555;53.248;10.336;2023-06-22T11:56:00;30.50;1.00
7028;DHT22;3555;53.248;10.336;2023-06-22T11:58:27;30.30;1.00
7028;DHT22;3555;53.248;10.336;2023-06-22T12:00:54;30.60;1.00
7028;DHT22;3555;53.248;10.336;2023-06-22T12:03:22;30.80;1.00
7028;DHT22;3555;53.248;10.336;2023-06-22T12:05:49;30.50;1.00
7028;DHT22;3555;53.248;10.336;2023-06-22T12:08:16;30.10;1.00
7028;DHT22;3555;53.248;10.336;2023-06-22T12:10:44;29.30;1.00
7028;DHT22;3555;53.248;10.336;2023-06-22T12:13:11;29.30;1.00
7028;DHT22;3555;53.248;10.336;2023-06-22T12:15:38;29.30;1.00
7028;DHT22;3555;53.248;10.336;2023-06-22T12:18:05;29.10;1.00
7028;DHT22;3555;53.248;10.336;2023-06-22T12:20:33;28.90;1.00
7028;DHT22;3555;53.248;10.336;2023-06-22T12:23:01;28.80;1.00
7028;DHT22;3555;53.248;10.336;2023-06-22T12:25:27;28.90;1.00
7028;DHT22;3555;53.248;10.336;2023-06-22T12:27:54;29.00;1.00
7028;DHT22;3555;53.248;10.336;2023-06-22T12:30:21;29.00;1.00
7028;DHT22;3555;53.248;10.336;2023-06-22T12:32:48;28.90;1.00
7028;DHT22;3555;53.248;10.336;2023-06-22T12:35:16;28.70;1.00
7028;DHT22;3555;53.248;10.336;2023-06-22T12:37:45;28.80;1.00
7028;DHT22;3555;53.248;10.336;2023-06-22T12:40:12;28.90;1.00
7028;DHT22;3555;53.248;10.336;2023-06-22T12:42:40;28.80;1.00
7028;DHT22;3555;53.248;10.336;2023-06-22T12:45:08;28.70;1.00
7028;DHT22;3555;53.248;10.336;2023-06-22T12:47:35;28.80;1.00
7028;DHT22;3555;53.248;10.336;2023-06-22T12:50:02;28.90;1.00
7028;DHT22;3555;53.248;10.336;2023-06-22T12:52:30;29.00;1.00
7028;DHT22;3555;53.248;10.336;2023-06-22T12:54:59;28.80;1.00
7028;DHT22;3555;53.248;10.336;2023-06-22T12:57:26;28.90;1.00
7028;DHT22;3555;53.248;10.336;2023-06-22T12:59:53;29.10;1.00
7028;DHT22;3555;53.248;10.336;2023-06-22T13:02:19;29.10;1.00
7028;DHT22;3555;53.248;10.336;2023-06-22T13:04:46;29.20;1.00
7028;DHT22;3555;53.248;10.336;2023-06-22T13:07:13;29.10;1.00
7028;DHT22;3555;53.248;10.336;2023-06-22T13:09:40;29.00;1.00
7028;DHT22;3555;53.248;10.336;2023-06-22T13:12:09;28.80;1.00
7028;DHT22;3555;53.248;10.336;2023-06-22T13:14:36;28.60;1.00
7028;DHT22;3555;53.248;10.336;2023-06-22T13:17:03;28.60;1.00
7028;DHT22;3555;53.248;10.336;2023-06-22T13:19:30;28.50;1.00
7028;DHT22;3555;53.248;10.336;2023-06-22T13:21:58;28.30;1.00
7028;DHT22;3555;53.248;10.336;2023-06-22T13:24:25;28.20;1.00
7028;DHT22;3555;53.248;10.336;2023-06-22T13:26:52;28.10;1.00
7028;DHT22;3555;53.248;10.336;2023-06-22T13:29:20;27.80;1.00
7028;DHT22;3555;53.248;10.336;2023-06-22T13:31:47;27.70;1.00
7028;DHT22;3555;53.248;10.336;2023-06-22T13:34:14;27.70;1.00
7028;DHT22;3555;53.248;10.336;2023-06-22T13:36:41;27.80;1.00
7028;DHT22;3555;53.248;10.336;2023-06-22T13:39:08;27.60;1.00
7028;DHT22;3555;53.248;10.336;2023-06-22T13:41:35;27.60;1.00
7028;DHT22;3555;53.248;10.336;2023-06-22T13:44:02;27.40;1.00
7028;DHT22;3555;53.248;10.336;2023-06-22T13:46:30;27.50;1.00
7028;DHT22;3555;53.248;10.336;2023-06-22T13:48:57;27.70;1.00
7028;DHT22;3555;53.248;10.336;2023-06-22T13:51:24;27.80;1.00
7028;DHT22;3555;53.248;10.336;2023-06-22T13:53:51;27.70;1.00
7028;DHT22;3555;53.248;10.336;2023-06-22T13:56:17;27.60;1.00
7028;DHT22;3555;53.248;10.336;2023-06-22T13:58:44;27.70;1.00
7028;DHT22;3555;53.248;10.336;2023-06-22T14:01:11;27.70;1.00
7028;DHT22;3555;53.248;10.336;2023-06-22T14:03:39;27.70;1.00
7028;DHT22;3555;53.248;10.336;2023-06-22T14:06:06;27.50;1.00
7028;DHT22;3555;53.248;10.336;2023-06-22T14:08:36;27.50;1.00
7028;DHT22;3555;53.248;10.336;2023-06-22T14:11:03;27.30;1.00
7028;DHT22;3555;53.248;10.336;2023-06-22T14:13:30;27.30;1.00
7028;DHT22;3555;53.248;10.336;2023-06-22T14:15:56;27.30;1.00
7028;DHT22;3555;53.248;10.336;2023-06-22T14:18:23;27.30;1.00
7028;DHT22;3555;53.248;10.336;2023-06-22T14:20:52;27.20;1.00
7028;DHT22;3555;53.248;10.336;2023-06-22T14:23:18;27.10;1.00
7028;DHT22;3555;53.248;10.336;2023-06-22T14:25:45;27.10;1.00
7028;DHT22;3555;53.248;10.336;2023-06-22T14:28:12;26.90;1.00
7028;DHT22;3555;53.248;10.336;2023-06-22T14:30:39;26.80;1.00
7028;DHT22;3555;53.248;10.336;2023-06-22T14:33:06;26.80;1.00
7028;DHT22;3555;53.248;10.336;2023-06-22T14:35:33;27.00;1.00
7028;DHT22;3555;53.248;10.336;2023-06-22T14:38:01;27.00;1.00
7028;DHT22;3555;53.248;10.336;2023-06-22T14:40:28;27.00;1.00
7028;DHT22;3555;53.248;10.336;2023-06-22T14:42:55;27.10;1.00
7028;DHT22;3555;53.248;10.336;2023-06-22T14:45:22;27.10;1.00
7028;DHT22;3555;53.248;10.336;2023-06-22T14:47:49;27.20;1.00
7028;DHT22;3555;53.248;10.336;2023-06-22T14:50:16;27.30;1.00
7028;DHT22;3555;53.248;10.336;2023-06-22T14:52:43;27.20;1.00
7028;DHT22;3555;53.248;10.336;2023-06-22T14:55:11;27.20;1.00
7028;DHT22;3555;53.248;10.336;2023-06-22T14:57:38;27.10;1.00
7028;DHT22;3555;53.248;10.336;2023-06-22T15:00:06;27.20;1.00
7028;DHT22;3555;53.248;10.336;2023-06-22T15:02:33;27.20;1.00
7028;DHT22;3555;53.248;10.336;2023-06-22T15:05:00;27.10;1.00
7028;DHT22;3555;53.248;10.336;2023-06-22T15:07:27;27.20;1.00
7028;DHT22;3555;53.248;10.336;2023-06-22T15:09:54;27.20;1.00
7028;DHT22;3555;53.248;10.336;2023-06-22T15:12:22;27.20;1.00
7028;DHT22;3555;53.248;10.336;2023-06-22T15:14:49;27.10;1.00
7028;DHT22;3555;53.248;10.336;2023-06-22T15:17:15;27.00;1.00
7028;DHT22;3555;53.248;10.336;2023-06-22T15:19:42;27.00;1.00
7028;DHT22;3555;53.248;10.336;2023-06-22T15:22:09;26.80;1.00
7028;DHT22;3555;53.248;10.336;2023-06-22T15:24:36;26.70;1.00
7028;DHT22;3555;53.248;10.336;2023-06-22T15:27:03;26.60;1.00
7028;DHT22;3555;53.248;10.336;2023-06-22T15:29:32;26.70;1.00
7028;DHT22;3555;53.248;10.336;2023-06-22T15:31:59;26.70;1.00
7028;DHT22;3555;53.248;10.336;2023-06-22T15:34:27;26.50;1.00
7028;DHT22;3555;53.248;10.336;2023-06-22T15:36:54;26.70;1.00
7028;DHT22;3555;53.248;10.336;2023-06-22T15:39:20;26.60;1.00
7028;DHT22;3555;53.248;10.336;2023-06-22T15:41:48;26.60;1.00
7028;DHT22;3555;53.248;10.336;2023-06-22T15:44:15;26.50;1.00
7028;DHT22;3555;53.248;10.336;2023-06-22T15:46:44;26.50;1.00
7028;DHT22;3555;53.248;10.336;2023-06-22T15:49:10;26.50;1.00
7028;DHT22;3555;53.248;10.336;2023-06-22T15:51:37;26.60;4.90
7028;DHT22;3555;53.248;10.336;2023-06-22T15:54:04;26.70;19.50
7028;DHT22;3555;53.248;10.336;2023-06-22T15:56:31;26.60;17.20
7028;DHT22;3555;53.248;10.336;2023-06-22T15:58:58;26.40;40.60
7028;DHT22;3555;53.248;10.336;2023-06-22T16:01:25;26.40;77.20